createdAt,value
2023-04-10T00:00:01.762Z,12.60
2023-04-10T00:02:58.680Z,13.00
2023-04-10T00:05:32.839Z,13.60
2023-04-10T00:08:06.785Z,13.40
2023-04-10T00:10:40.341Z,13.50
2023-04-10T00:13:13.834Z,15.40
2023-04-10T00:15:47.653Z,13.90
2023-04-10T00:18:21.765Z,12.90
2023-04-10T00:20:55.888Z,13.30
2023-04-10T00:23:32.225Z,12.60
2023-04-10T00:26:06.546Z,12.60
2023-04-10T00:28:40.065Z,14.50
2023-04-10T00:31:13.414Z,13.40
2023-04-10T00:33:47.273Z,14.80
2023-04-10T00:36:21.541Z,14.00
2023-04-10T00:38:55.161Z,14.20
2023-04-10T00:41:29.824Z,15.30
2023-04-10T00:44:03.566Z,14.30
2023-04-10T00:46:38.766Z,15.00
2023-04-10T00:49:12.290Z,14.50
2023-04-10T00:51:46.218Z,14.40
2023-04-10T00:54:20.159Z,14.90
2023-04-10T00:56:54.163Z,13.30
2023-04-10T00:59:27.920Z,13.20
2023-04-10T01:02:01.906Z,13.60
2023-04-10T01:04:36.727Z,13.60
2023-04-10T01:07:19.283Z,13.60
2023-04-10T01:10:00.891Z,13.90
2023-04-10T01:12:46.304Z,14.90
2023-04-10T01:15:22.685Z,13.90
2023-04-10T01:18:03.791Z,14.70
2023-04-10T01:20:39.791Z,13.80
2023-04-10T01:23:55.947Z,13.80
2023-04-10T01:26:44.573Z,13.20
2023-04-10T01:29:21.045Z,13.60
2023-04-10T01:32:00.181Z,14.20
2023-04-10T01:34:38.971Z,14.00
2023-04-10T01:39:52.137Z,12.60
2023-04-10T01:42:28.504Z,12.60
2023-04-10T01:45:03.263Z,13.00
2023-04-10T01:47:36.610Z,13.70
2023-04-10T01:50:13.309Z,14.30
2023-04-10T01:52:48.344Z,14.10
2023-04-10T01:55:30.354Z,14.10
2023-04-10T01:58:11.536Z,13.80
2023-04-10T02:00:45.622Z,12.90
2023-04-10T02:03:19.438Z,11.90
2023-04-10T02:06:04.176Z,12.20
2023-04-10T02:08:42.519Z,13.50
2023-04-10T02:11:23.905Z,14.60
2023-04-10T02:13:59.361Z,13.70
2023-04-10T02:16:34.825Z,14.10
2023-04-10T02:19:09.450Z,13.10
2023-04-10T02:21:44.545Z,14.70
2023-04-10T02:24:18.645Z,12.30
2023-04-10T02:26:53.781Z,12.60
2023-04-10T02:29:27.306Z,13.10
2023-04-10T02:32:01.732Z,12.70
2023-04-10T02:34:35.334Z,13.00
2023-04-10T02:37:09.023Z,12.30
2023-04-10T02:39:42.465Z,12.80
2023-04-10T02:42:16.661Z,12.30
2023-04-10T02:44:50.495Z,13.00
2023-04-10T02:47:24.802Z,12.20
2023-04-10T02:49:58.375Z,12.80
2023-04-10T02:52:37.710Z,13.30
2023-04-10T02:55:12.457Z,11.90
2023-04-10T02:57:46.741Z,11.90
2023-04-10T03:00:21.080Z,11.10
2023-04-10T03:03:22.354Z,12.20
2023-04-10T03:05:59.421Z,12.50
2023-04-10T03:08:37.007Z,13.10
2023-04-10T03:11:10.978Z,12.60
2023-04-10T03:13:45.296Z,12.30
2023-04-10T03:16:19.294Z,12.80
2023-04-10T03:18:54.544Z,11.90
2023-04-10T03:21:29.098Z,12.20
2023-04-10T03:24:03.148Z,12.30
2023-04-10T03:26:36.372Z,11.60
2023-04-10T03:29:09.636Z,12.60
2023-04-10T03:31:43.371Z,12.00
2023-04-10T03:34:17.275Z,12.70
2023-04-10T03:36:50.859Z,12.60
2023-04-10T03:39:25.043Z,11.60
2023-04-10T03:42:00.989Z,11.50
2023-04-10T03:44:34.584Z,12.20
2023-04-10T03:47:09.337Z,12.60
2023-04-10T03:49:43.276Z,13.00
2023-04-10T03:52:17.190Z,12.50
2023-04-10T03:54:52.331Z,12.20
2023-04-10T03:57:31.741Z,13.80
2023-04-10T04:00:10.256Z,14.30
2023-04-10T04:02:56.997Z,13.20
2023-04-10T04:05:49.196Z,12.70
2023-04-10T04:08:46.536Z,13.10
2023-04-10T04:11:36.731Z,13.50
2023-04-10T04:14:21.781Z,12.30
2023-04-10T04:17:23.738Z,13.50
2023-04-10T04:20:20.368Z,13.30
2023-04-10T04:23:14.079Z,12.40
2023-04-10T04:26:08.469Z,11.60
2023-04-10T04:29:08.014Z,12.00
2023-04-10T04:31:52.433Z,12.10
2023-04-10T04:34:55.879Z,12.10
2023-04-10T04:37:58.815Z,12.60
2023-04-10T04:41:03.741Z,12.60
2023-04-10T04:43:56.430Z,12.50
2023-04-10T04:46:47.419Z,12.50
2023-04-10T04:49:40.359Z,12.90
2023-04-10T04:52:32.659Z,12.40
2023-04-10T04:55:16.520Z,11.90
2023-04-10T04:58:03.075Z,12.60
2023-04-10T05:01:00.181Z,13.00
2023-04-10T05:03:52.920Z,12.80
2023-04-10T05:06:43.101Z,13.10
2023-04-10T05:09:25.816Z,12.50
2023-04-10T05:12:38.121Z,13.30
2023-04-10T05:15:28.982Z,12.20
2023-04-10T05:18:36.810Z,12.40
2023-04-10T05:21:30.326Z,13.90
2023-04-10T05:24:29.581Z,15.70
2023-04-10T05:27:28.711Z,16.40
2023-04-10T05:30:26.383Z,14.50
2023-04-10T05:33:19.341Z,13.00
2023-04-10T05:36:14.600Z,11.80
2023-04-10T05:39:09.494Z,11.30
2023-04-10T05:42:05.836Z,11.30
2023-04-10T05:44:56.738Z,11.50
2023-04-10T05:47:59.521Z,10.50
2023-04-10T05:50:43.174Z,10.50
2023-04-10T05:53:25.874Z,10.70
2023-04-10T05:56:09.763Z,9.40
2023-04-10T05:59:02.798Z,9.70
2023-04-10T06:02:06.685Z,10.80
2023-04-10T06:04:40.143Z,9.80
2023-04-10T06:07:13.908Z,9.90
2023-04-10T06:09:48.151Z,11.50
2023-04-10T06:12:22.077Z,9.90
2023-04-10T06:14:56.272Z,10.20
2023-04-10T06:17:30.173Z,10.20
2023-04-10T06:20:06.536Z,9.30
2023-04-10T06:22:40.920Z,9.00
2023-04-10T06:25:14.789Z,9.70
2023-04-10T06:27:48.513Z,10.20
2023-04-10T06:30:22.121Z,10.10
2023-04-10T06:32:56.547Z,8.50
2023-04-10T06:35:30.790Z,9.70
2023-04-10T06:38:04.334Z,9.00
2023-04-10T06:40:40.155Z,8.40
2023-04-10T06:43:14.125Z,8.90
2023-04-10T06:45:48.529Z,9.20
2023-04-10T06:48:22.535Z,8.10
2023-04-10T06:50:56.710Z,8.60
2023-04-10T06:53:30.496Z,8.30
2023-04-10T06:56:04.074Z,8.90
2023-04-10T06:58:37.728Z,9.00
2023-04-10T07:01:11.775Z,8.90
2023-04-10T07:03:45.567Z,8.80
2023-04-10T07:06:19.072Z,7.70
2023-04-10T07:08:54.301Z,7.60
2023-04-10T07:11:27.676Z,7.00
2023-04-10T07:14:01.340Z,6.90
2023-04-10T07:16:35.385Z,6.80
2023-04-10T07:19:09.419Z,7.10
2023-04-10T07:21:43.208Z,6.40
2023-04-10T07:24:16.471Z,6.70
2023-04-10T07:26:50.313Z,7.20
2023-04-10T07:29:24.170Z,6.40
2023-04-10T07:31:58.305Z,6.70
2023-04-10T07:34:32.655Z,6.50
2023-04-10T07:37:07.436Z,6.90
2023-04-10T07:39:41.578Z,5.80
2023-04-10T07:42:15.432Z,6.80
2023-04-10T07:44:49.122Z,6.70
2023-04-10T07:47:23.232Z,7.10
2023-04-10T07:49:56.815Z,7.20
2023-04-10T07:52:30.179Z,7.00
2023-04-10T07:55:05.018Z,7.90
2023-04-10T07:57:41.627Z,7.50
2023-04-10T08:00:18.074Z,7.40
2023-04-10T08:02:52.031Z,7.50
2023-04-10T08:05:26.087Z,8.30
2023-04-10T08:07:59.397Z,9.10
2023-04-10T08:10:32.809Z,9.60
2023-04-10T08:13:06.553Z,8.30
2023-04-10T08:15:40.223Z,8.00
2023-04-10T08:18:14.112Z,7.80
2023-04-10T08:20:48.107Z,8.00
2023-04-10T08:23:21.767Z,7.10
2023-04-10T08:25:55.121Z,7.00
2023-04-10T08:28:28.777Z,7.00
2023-04-10T08:31:02.442Z,6.90
2023-04-10T08:33:36.002Z,6.90
2023-04-10T08:36:10.577Z,6.90
2023-04-10T08:38:44.973Z,8.50
2023-04-10T08:41:19.922Z,7.70
2023-04-10T08:43:54.278Z,7.90
2023-04-10T08:46:28.768Z,7.90
2023-04-10T08:49:05.867Z,8.20
2023-04-10T08:51:45.805Z,7.90
2023-04-10T08:54:26.310Z,7.90
2023-04-10T08:57:01.808Z,8.40
2023-04-10T08:59:35.897Z,8.00
2023-04-10T09:02:09.791Z,7.60
2023-04-10T09:04:46.237Z,7.50
2023-04-10T09:07:20.316Z,8.50
2023-04-10T09:09:53.751Z,7.80
2023-04-10T09:12:27.531Z,7.10
2023-04-10T09:15:01.727Z,6.40
2023-04-10T09:17:35.330Z,6.60
2023-04-10T09:20:24.232Z,6.30
2023-04-10T09:22:58.228Z,6.60
2023-04-10T09:25:39.845Z,6.60
2023-04-10T09:28:13.540Z,6.90
2023-04-10T09:30:47.606Z,6.20
2023-04-10T09:33:30.411Z,6.40
2023-04-10T09:36:04.675Z,6.40
2023-04-10T09:38:38.714Z,6.50
2023-04-10T09:41:13.415Z,6.70
2023-04-10T09:43:47.223Z,6.90
2023-04-10T09:46:30.798Z,7.20
2023-04-10T09:49:05.600Z,5.90
2023-04-10T09:51:39.905Z,5.30
2023-04-10T09:54:13.438Z,4.30
2023-04-10T09:56:49.646Z,5.10
2023-04-10T09:59:23.671Z,4.70
2023-04-10T10:01:57.831Z,4.80
2023-04-10T10:04:32.276Z,4.50
2023-04-10T10:07:06.225Z,4.80
2023-04-10T10:09:40.706Z,4.70
2023-04-10T10:12:17.365Z,5.10
2023-04-10T10:14:59.526Z,4.60
2023-04-10T10:17:38.666Z,4.50
2023-04-10T10:20:14.562Z,3.80
2023-04-10T10:22:49.202Z,4.60
2023-04-10T10:25:23.386Z,4.10
2023-04-10T10:27:57.705Z,4.60
2023-04-10T10:30:31.338Z,4.30
2023-04-10T10:33:07.508Z,3.70
2023-04-10T10:35:41.662Z,3.70
2023-04-10T10:38:16.529Z,3.70
2023-04-10T10:40:57.087Z,3.40
2023-04-10T10:43:47.871Z,4.30
2023-04-10T10:46:31.381Z,4.40
2023-04-10T10:49:05.696Z,4.10
2023-04-10T10:51:49.846Z,3.70
2023-04-10T10:54:33.826Z,3.80
2023-04-10T10:57:27.786Z,4.10
2023-04-10T11:00:01.340Z,4.10
2023-04-10T11:02:35.454Z,4.00
2023-04-10T11:05:09.842Z,4.20
2023-04-10T11:08:12.413Z,4.10
2023-04-10T11:11:06.121Z,3.80
2023-04-10T11:13:40.808Z,3.50
2023-04-10T11:16:14.872Z,3.70
2023-04-10T11:19:14.077Z,3.60
2023-04-10T11:22:10.448Z,3.40
2023-04-10T11:25:09.058Z,3.60
2023-04-10T11:27:48.817Z,4.00
2023-04-10T11:30:37.900Z,3.40
2023-04-10T11:33:19.939Z,3.90
2023-04-10T11:35:53.894Z,3.10
2023-04-10T11:38:27.860Z,3.40
2023-04-10T11:41:07.182Z,3.50
2023-04-10T11:43:40.891Z,3.30
2023-04-10T11:46:14.597Z,3.20
2023-04-10T11:48:48.580Z,3.20
2023-04-10T11:51:22.355Z,3.00
2023-04-10T11:54:08.691Z,3.20
2023-04-10T11:56:43.659Z,3.50
2023-04-10T11:59:21.065Z,3.00
2023-04-10T12:01:56.351Z,3.60
2023-04-10T12:04:29.971Z,3.60
2023-04-10T12:07:04.133Z,3.20
2023-04-10T12:09:38.352Z,2.90
2023-04-10T12:12:12.172Z,2.90
2023-04-10T12:14:46.955Z,3.20
2023-04-10T12:17:21.207Z,3.00
2023-04-10T12:19:55.127Z,2.90
2023-04-10T12:22:28.601Z,3.40
2023-04-10T12:25:02.227Z,3.30
2023-04-10T12:27:35.992Z,3.20
2023-04-10T12:30:11.797Z,3.40
2023-04-10T12:32:52.793Z,3.90
2023-04-10T12:35:42.905Z,3.60
2023-04-10T12:38:16.635Z,3.20
2023-04-10T12:41:13.050Z,3.30
2023-04-10T12:43:46.626Z,3.50
2023-04-10T12:46:29.521Z,3.20
2023-04-10T12:49:13.232Z,3.40
2023-04-10T12:51:48.292Z,3.00
2023-04-10T12:54:35.835Z,3.40
2023-04-10T12:57:09.588Z,2.90
2023-04-10T12:59:45.763Z,3.00
2023-04-10T13:02:21.651Z,3.40
2023-04-10T13:04:56.273Z,3.30
2023-04-10T13:07:29.688Z,3.20
2023-04-10T13:10:03.743Z,3.10
2023-04-10T13:12:39.301Z,3.30
2023-04-10T13:15:13.737Z,3.00
2023-04-10T13:17:47.211Z,3.50
2023-04-10T13:20:21.576Z,3.40
2023-04-10T13:22:55.280Z,2.80
2023-04-10T13:25:29.114Z,3.00
2023-04-10T13:28:02.809Z,3.40
2023-04-10T13:30:36.969Z,3.10
2023-04-10T13:33:11.765Z,4.10
2023-04-10T13:35:45.316Z,3.40
2023-04-10T13:38:20.031Z,3.60
2023-04-10T13:40:56.329Z,3.70
2023-04-10T13:43:29.959Z,4.10
2023-04-10T13:46:03.624Z,3.30
2023-04-10T13:48:41.906Z,3.10
2023-04-10T13:51:15.678Z,3.20
2023-04-10T13:53:48.894Z,3.40
2023-04-10T13:56:22.593Z,3.60
2023-04-10T13:58:56.756Z,3.40
2023-04-10T14:01:30.756Z,3.30
2023-04-10T14:04:04.563Z,4.00
2023-04-10T14:06:38.274Z,3.50
2023-04-10T14:09:12.124Z,3.30
2023-04-10T14:11:46.298Z,3.60
2023-04-10T14:14:19.780Z,3.30
2023-04-10T14:16:53.181Z,3.30
2023-04-10T14:19:26.438Z,3.50
2023-04-10T14:21:59.475Z,3.00
2023-04-10T14:24:32.617Z,3.90
2023-04-10T14:27:06.045Z,3.30
2023-04-10T14:29:47.432Z,3.40
2023-04-10T14:32:28.247Z,3.30
2023-04-10T14:35:02.087Z,3.80
2023-04-10T14:37:36.254Z,3.40
2023-04-10T14:40:12.443Z,3.40
2023-04-10T14:42:46.673Z,4.10
2023-04-10T14:45:20.446Z,3.50
2023-04-10T14:47:54.948Z,3.90
2023-04-10T14:50:29.702Z,3.70
2023-04-10T14:53:04.208Z,4.00
2023-04-10T14:55:37.769Z,4.20
2023-04-10T14:58:11.646Z,4.20
2023-04-10T15:00:45.939Z,4.00
2023-04-10T15:03:19.398Z,3.90
2023-04-10T15:06:00.278Z,3.80
2023-04-10T15:08:33.617Z,4.30
2023-04-10T15:11:08.056Z,5.00
2023-04-10T15:13:41.992Z,4.50
2023-04-10T15:16:16.023Z,4.70
2023-04-10T15:18:52.069Z,4.80
2023-04-10T15:21:27.678Z,4.20
2023-04-10T15:24:01.447Z,4.20
2023-04-10T15:26:35.285Z,4.30
2023-04-10T15:29:08.698Z,3.60
2023-04-10T15:31:42.545Z,4.00
2023-04-10T15:34:16.552Z,3.80
2023-04-10T15:36:49.962Z,3.40
2023-04-10T15:39:23.653Z,4.00
2023-04-10T15:41:58.484Z,3.40
2023-04-10T15:44:32.173Z,3.00
2023-04-10T15:47:06.607Z,2.90
2023-04-10T15:49:40.633Z,3.30
2023-04-10T15:52:14.350Z,3.30
2023-04-10T15:54:47.857Z,3.60
2023-04-10T15:57:21.482Z,4.00
2023-04-10T15:59:59.053Z,3.50
2023-04-10T16:02:33.707Z,4.00
2023-04-10T16:05:08.919Z,4.80
2023-04-10T16:07:44.093Z,4.60
2023-04-10T16:10:20.529Z,4.80
2023-04-10T16:12:53.767Z,4.90
2023-04-10T16:15:28.863Z,4.60
2023-04-10T16:18:02.236Z,4.70
2023-04-10T16:20:36.210Z,4.60
2023-04-10T16:23:10.151Z,5.60
2023-04-10T16:25:44.085Z,5.10
2023-04-10T16:28:18.164Z,5.30
2023-04-10T16:30:52.440Z,5.00
2023-04-10T16:33:26.470Z,5.40
2023-04-10T16:35:59.859Z,5.40
2023-04-10T16:38:34.867Z,5.50
2023-04-10T16:41:10.222Z,4.80
2023-04-10T16:43:46.835Z,4.20
2023-04-10T16:46:20.473Z,3.80
2023-04-10T16:48:54.475Z,3.30
2023-04-10T16:51:28.665Z,3.20
2023-04-10T16:54:02.248Z,3.30
2023-04-10T16:56:36.408Z,3.60
2023-04-10T16:59:09.920Z,3.40
2023-04-10T17:01:43.744Z,3.40
2023-04-10T17:04:19.396Z,3.30
2023-04-10T17:06:52.920Z,3.60
2023-04-10T17:09:26.761Z,3.70
2023-04-10T17:12:00.638Z,3.70
2023-04-10T17:14:34.359Z,3.40
2023-04-10T17:17:08.545Z,3.90
2023-04-10T17:19:42.445Z,5.90
2023-04-10T17:22:17.745Z,7.20
2023-04-10T17:24:51.010Z,8.10
2023-04-10T17:27:24.817Z,9.20
2023-04-10T17:29:58.693Z,13.30
2023-04-10T17:32:32.915Z,12.00
2023-04-10T17:35:10.733Z,10.90
2023-04-10T17:37:45.081Z,6.30
2023-04-10T17:40:19.590Z,5.10
2023-04-10T17:42:53.887Z,6.80
2023-04-10T17:45:27.701Z,5.00
2023-04-10T17:48:01.859Z,5.20
2023-04-10T17:50:37.301Z,4.60
2023-04-10T17:53:11.215Z,5.00
2023-04-10T17:55:46.662Z,6.40
2023-04-10T17:58:20.436Z,6.70
2023-04-10T18:00:54.239Z,6.80
2023-04-10T18:03:28.548Z,8.10
2023-04-10T18:06:03.144Z,7.10
2023-04-10T18:08:37.301Z,6.70
2023-04-10T18:11:10.987Z,6.60
2023-04-10T18:13:44.664Z,6.00
2023-04-10T18:16:19.524Z,6.20
2023-04-10T18:18:53.746Z,6.20
2023-04-10T18:21:29.114Z,6.10
2023-04-10T18:24:02.628Z,5.80
2023-04-10T18:26:36.218Z,6.20
2023-04-10T18:29:10.298Z,5.90
2023-04-10T18:31:43.997Z,6.70
2023-04-10T18:34:17.920Z,6.60
2023-04-10T18:36:52.413Z,6.70
2023-04-10T18:39:26.385Z,7.60
2023-04-10T18:41:59.871Z,6.70
2023-04-10T18:44:34.878Z,6.30
2023-04-10T18:47:08.904Z,6.90
2023-04-10T18:49:43.251Z,7.70
2023-04-10T18:52:18.232Z,9.30
2023-04-10T18:54:52.494Z,8.70
2023-04-10T18:57:27.571Z,8.70
2023-04-10T19:00:04.918Z,7.90
2023-04-10T19:02:40.075Z,8.40
2023-04-10T19:05:17.104Z,8.70
2023-04-10T19:08:02.883Z,8.20
2023-04-10T19:10:39.381Z,8.00
2023-04-10T19:13:16.752Z,9.00
2023-04-10T19:15:51.749Z,8.70
2023-04-10T19:18:26.934Z,9.00
2023-04-10T19:21:00.820Z,9.10
2023-04-10T19:23:36.460Z,8.40
2023-04-10T19:26:12.314Z,8.50
2023-04-10T19:28:46.604Z,9.40
2023-04-10T19:31:24.264Z,8.90
2023-04-10T19:33:58.683Z,8.70
2023-04-10T19:36:33.764Z,8.10
2023-04-10T19:39:07.612Z,8.40
2023-04-10T19:41:42.524Z,8.40
2023-04-10T19:44:16.988Z,8.40
2023-04-10T19:46:56.354Z,9.10
2023-04-10T19:49:33.079Z,8.00
2023-04-10T19:52:06.983Z,8.50
2023-04-10T19:54:41.254Z,9.00
2023-04-10T19:57:16.098Z,8.90
2023-04-10T19:59:50.128Z,9.50
2023-04-10T20:02:24.268Z,8.80
2023-04-10T20:04:59.386Z,8.70
2023-04-10T20:07:33.047Z,8.90
2023-04-10T20:10:08.041Z,9.90
2023-04-10T20:12:42.097Z,9.10
2023-04-10T20:15:16.610Z,8.40
2023-04-10T20:17:50.009Z,9.60
2023-04-10T20:20:23.812Z,8.70
2023-04-10T20:22:57.676Z,8.90
2023-04-10T20:25:31.154Z,10.70
2023-04-10T20:28:04.781Z,10.00
2023-04-10T20:30:39.817Z,10.60
2023-04-10T20:33:13.785Z,10.50
2023-04-10T20:35:47.589Z,10.90
2023-04-10T20:38:22.365Z,10.00
2023-04-10T20:40:55.705Z,10.60
2023-04-10T20:43:29.540Z,9.80
2023-04-10T20:46:08.384Z,9.80
2023-04-10T20:48:42.291Z,10.40
2023-04-10T20:51:16.244Z,10.30
2023-04-10T20:53:50.006Z,10.60
2023-04-10T20:56:32.910Z,11.40
2023-04-10T20:59:14.214Z,10.10
2023-04-10T21:01:48.334Z,10.90
2023-04-10T21:04:22.433Z,10.80
2023-04-10T21:06:56.007Z,11.10
2023-04-10T21:09:30.087Z,11.50
2023-04-10T21:12:03.448Z,13.10
2023-04-10T21:14:37.560Z,13.20
2023-04-10T21:17:11.021Z,11.40
2023-04-10T21:19:44.653Z,11.40
2023-04-10T21:22:18.368Z,12.40
2023-04-10T21:24:51.954Z,12.00
2023-04-10T21:27:26.231Z,12.90
2023-04-10T21:29:59.997Z,13.00
2023-04-10T21:32:33.680Z,12.90
2023-04-10T21:35:08.995Z,13.50
2023-04-10T21:37:42.324Z,13.10
2023-04-10T21:40:16.726Z,13.20
2023-04-10T21:42:50.694Z,13.30
2023-04-10T21:45:25.030Z,12.90
2023-04-10T21:48:00.279Z,14.50
2023-04-10T21:50:33.858Z,13.60
2023-04-10T21:53:07.673Z,13.20
2023-04-10T21:55:41.263Z,12.30
2023-04-10T21:58:14.821Z,13.40
2023-04-10T22:00:50.309Z,13.10
2023-04-10T22:03:24.392Z,13.20
2023-04-10T22:05:58.340Z,12.70
2023-04-10T22:08:31.916Z,13.60
2023-04-10T22:11:06.532Z,14.00
2023-04-10T22:13:40.225Z,13.40
2023-04-10T22:16:14.403Z,13.70
2023-04-10T22:18:48.365Z,14.60
2023-04-10T22:21:21.907Z,12.80
2023-04-10T22:23:55.756Z,13.30
2023-04-10T22:26:30.120Z,12.90
2023-04-10T22:29:04.535Z,15.10
2023-04-10T22:31:38.680Z,14.50
2023-04-10T22:34:13.032Z,14.60
2023-04-10T22:36:46.495Z,15.30
2023-04-10T22:39:20.187Z,16.00
2023-04-10T22:41:54.155Z,15.10
2023-04-10T22:44:28.250Z,15.10
2023-04-10T22:47:01.647Z,13.80
2023-04-10T22:49:35.406Z,13.30
2023-04-10T22:52:09.021Z,12.60
2023-04-10T22:54:42.348Z,13.90
2023-04-10T22:57:15.957Z,13.30
2023-04-10T22:59:49.863Z,14.70
2023-04-10T23:02:23.762Z,15.00
2023-04-10T23:04:58.201Z,13.30
2023-04-10T23:07:32.130Z,14.20
2023-04-10T23:10:06.061Z,14.90
2023-04-10T23:12:39.617Z,14.80
2023-04-10T23:15:14.556Z,13.50
2023-04-10T23:17:48.088Z,12.80
2023-04-10T23:20:22.287Z,13.50
2023-04-10T23:22:56.600Z,13.40
2023-04-10T23:25:30.263Z,14.30
2023-04-10T23:28:03.933Z,14.50
2023-04-10T23:30:38.820Z,14.70
2023-04-10T23:33:12.497Z,14.80
2023-04-10T23:35:46.256Z,14.70
2023-04-10T23:38:20.105Z,14.60
2023-04-10T23:40:53.885Z,13.50
2023-04-10T23:43:27.250Z,14.20
2023-04-10T23:46:00.770Z,14.90
2023-04-10T23:48:34.364Z,16.20
2023-04-10T23:51:09.666Z,15.30
2023-04-10T23:53:43.408Z,15.10
2023-04-10T23:56:17.081Z,16.10
2023-04-10T23:58:50.425Z,17.20
